createdAt,value
2022-11-16T00:01:21.732Z,1.83
2022-11-16T00:03:51.026Z,5.17
2022-11-16T00:06:18.916Z,3.20
2022-11-16T00:09:22.685Z,4.03
2022-11-16T00:11:55.750Z,3.43
2022-11-16T00:14:24.586Z,2.40
2022-11-16T00:16:51.804Z,2.47
2022-11-16T00:19:19.131Z,2.57
2022-11-16T00:21:46.409Z,2.60
2022-11-16T00:24:18.381Z,3.63
2022-11-16T00:26:46.401Z,4.00
2022-11-16T00:29:24.610Z,3.13
2022-11-16T00:31:52.149Z,2.97
2022-11-16T00:38:01.725Z,3.00
2022-11-16T00:40:28.499Z,1.20
2022-11-16T00:42:55.199Z,2.00
2022-11-16T00:45:21.990Z,1.20
2022-11-16T00:47:48.764Z,1.13
2022-11-16T00:50:15.889Z,0.93
2022-11-16T00:52:45.432Z,0.70
2022-11-16T00:55:12.186Z,1.63
2022-11-16T00:57:38.978Z,1.43
2022-11-16T01:00:06.375Z,3.03
2022-11-16T01:02:33.182Z,2.10
2022-11-16T01:04:59.862Z,1.70
2022-11-16T01:07:26.815Z,1.83
2022-11-16T01:09:53.574Z,0.87
2022-11-16T01:12:20.266Z,1.17
2022-11-16T01:14:47.702Z,0.83
2022-11-16T01:17:15.500Z,0.77
2022-11-16T01:19:42.217Z,0.90
2022-11-16T01:22:09.280Z,1.77
2022-11-16T01:24:36.036Z,1.00
2022-11-16T01:27:02.669Z,0.97
2022-11-16T01:29:31.090Z,0.77
2022-11-16T01:31:58.063Z,1.60
2022-11-16T01:34:25.051Z,0.63
2022-11-16T01:36:52.037Z,0.90
2022-11-16T01:39:19.861Z,1.60
2022-11-16T01:41:47.135Z,1.77
2022-11-16T01:44:32.085Z,1.83
2022-11-16T01:47:00.066Z,1.47
2022-11-16T01:49:31.050Z,1.90
2022-11-16T01:52:03.357Z,1.00
2022-11-16T01:54:33.094Z,2.13
2022-11-16T01:57:02.998Z,1.37
2022-11-16T01:59:30.244Z,0.40
2022-11-16T02:02:00.160Z,0.67
2022-11-16T02:04:26.934Z,1.63
2022-11-16T02:07:19.412Z,0.67
2022-11-16T02:09:59.052Z,0.77
2022-11-16T02:12:44.593Z,2.00
2022-11-16T02:15:29.662Z,1.37
2022-11-16T02:18:33.448Z,0.20
2022-11-16T02:21:36.980Z,0.30
2022-11-16T02:24:15.820Z,0.73
2022-11-16T02:27:20.314Z,0.50
2022-11-16T02:29:55.501Z,0.70
2022-11-16T02:32:37.497Z,1.70
2022-11-16T02:35:18.610Z,0.40
2022-11-16T02:37:53.162Z,0.60
2022-11-16T02:40:23.881Z,0.20
2022-11-16T02:42:55.534Z,0.30
2022-11-16T02:45:26.816Z,0.97
2022-11-16T02:47:57.579Z,0.30
2022-11-16T02:50:27.247Z,1.43
2022-11-16T02:52:53.935Z,0.93
2022-11-16T02:55:20.789Z,0.80
2022-11-16T02:57:56.591Z,0.93
2022-11-16T03:00:25.373Z,0.30
2022-11-16T03:03:06.951Z,0.53
2022-11-16T03:05:42.500Z,0.20
2022-11-16T03:08:14.608Z,1.73
2022-11-16T03:11:02.996Z,0.63
2022-11-16T03:13:33.598Z,0.20
2022-11-16T03:16:05.550Z,1.57
2022-11-16T03:18:32.726Z,0.70
2022-11-16T03:21:17.973Z,0.20
2022-11-16T03:23:46.699Z,1.13
2022-11-16T03:26:16.649Z,1.60
2022-11-16T03:28:59.074Z,0.40
2022-11-16T03:31:34.871Z,0.35
2022-11-16T03:34:08.326Z,1.27
2022-11-16T03:36:38.743Z,1.67
2022-11-16T03:39:16.275Z,0.60
2022-11-16T03:41:44.754Z,0.30
2022-11-16T03:44:14.571Z,0.87
2022-11-16T03:46:43.684Z,2.53
2022-11-16T03:49:10.348Z,2.90
2022-11-16T03:51:37.637Z,0.70
2022-11-16T03:54:05.415Z,0.20
2022-11-16T03:56:32.153Z,0.77
2022-11-16T03:58:58.919Z,0.20
2022-11-16T04:01:25.912Z,0.40
2022-11-16T04:03:52.657Z,1.03
2022-11-16T04:06:38.070Z,0.47
2022-11-16T04:09:22.724Z,0.60
2022-11-16T04:12:08.265Z,0.40
2022-11-16T04:14:53.466Z,0.53
2022-11-16T04:17:42.737Z,0.70
2022-11-16T04:20:33.509Z,0.53
2022-11-16T04:23:31.084Z,2.40
2022-11-16T04:25:58.132Z,0.60
2022-11-16T04:28:29.381Z,1.43
2022-11-16T04:31:17.375Z,2.20
2022-11-16T04:34:03.305Z,1.40
2022-11-16T04:36:48.917Z,2.77
2022-11-16T04:39:15.580Z,1.17
2022-11-16T04:42:00.801Z,1.20
2022-11-16T04:44:47.412Z,2.00
2022-11-16T04:47:14.314Z,0.80
2022-11-16T04:49:40.965Z,1.10
2022-11-16T04:52:08.963Z,1.13
2022-11-16T04:54:35.786Z,0.97
2022-11-16T04:57:02.590Z,1.93
2022-11-16T04:59:29.281Z,1.20
2022-11-16T05:02:11.337Z,2.63
2022-11-16T05:04:42.658Z,2.83
2022-11-16T05:07:12.207Z,1.43
2022-11-16T05:09:43.088Z,1.83
2022-11-16T05:12:12.500Z,2.63
2022-11-16T05:14:39.147Z,1.07
2022-11-16T05:17:05.921Z,3.33
2022-11-16T05:19:51.579Z,0.97
2022-11-16T05:22:18.428Z,3.23
2022-11-16T05:24:45.450Z,2.27
2022-11-16T05:27:14.968Z,2.07
2022-11-16T05:29:42.290Z,1.20
2022-11-16T05:32:11.107Z,1.27
2022-11-16T05:34:38.343Z,1.07
2022-11-16T05:37:05.717Z,1.73
2022-11-16T05:39:32.400Z,2.67
2022-11-16T05:41:59.153Z,0.77
2022-11-16T05:44:25.999Z,1.73
2022-11-16T05:46:53.514Z,1.90
2022-11-16T05:49:20.196Z,1.67
2022-11-16T05:51:47.719Z,1.90
2022-11-16T05:54:26.419Z,2.20
2022-11-16T05:56:54.182Z,2.00
2022-11-16T05:59:22.693Z,2.53
2022-11-16T06:01:50.214Z,2.07
2022-11-16T06:06:57.978Z,1.00
2022-11-16T06:09:24.707Z,1.87
2022-11-16T06:11:51.726Z,3.13
2022-11-16T06:15:18.171Z,3.30
2022-11-16T06:18:44.718Z,4.07
2022-11-16T06:22:11.241Z,2.73
2022-11-16T06:25:37.892Z,4.43
2022-11-16T06:32:58.693Z,2.78
2022-11-16T06:36:25.124Z,2.53
2022-11-16T06:43:43.963Z,2.13
2022-11-16T06:47:10.448Z,2.70
2022-11-16T06:53:29.644Z,5.20
2022-11-16T06:56:02.140Z,3.67
2022-11-16T06:58:31.800Z,2.67
2022-11-16T07:01:06.235Z,3.73
2022-11-16T07:03:33.153Z,3.27
2022-11-16T07:05:59.875Z,4.03
2022-11-16T07:08:28.298Z,2.53
2022-11-16T07:10:56.456Z,4.17
2022-11-16T07:14:24.433Z,3.47
2022-11-16T07:17:51.107Z,3.07
2022-11-16T07:21:17.532Z,4.77
2022-11-16T07:23:44.722Z,3.83
2022-11-16T07:26:12.006Z,3.63
2022-11-16T07:28:43.387Z,4.43
2022-11-16T07:31:15.115Z,3.83
2022-11-16T07:33:42.081Z,2.93
2022-11-16T07:36:14.033Z,3.93
2022-11-16T07:38:41.220Z,3.40
2022-11-16T07:41:16.826Z,3.53
2022-11-16T07:43:47.226Z,4.07
2022-11-16T07:46:45.401Z,5.40
2022-11-16T07:49:11.159Z,4.67
2022-11-16T07:51:38.440Z,7.63
2022-11-16T07:54:06.691Z,5.10
2022-11-16T07:56:33.632Z,5.87
2022-11-16T07:59:00.711Z,6.10
2022-11-16T08:01:27.530Z,5.13
2022-11-16T08:03:54.482Z,5.40
2022-11-16T08:06:24.989Z,5.27
2022-11-16T08:08:57.813Z,6.80
2022-11-16T08:11:25.471Z,5.57
2022-11-16T08:13:52.225Z,8.27
2022-11-16T08:16:21.692Z,6.83
2022-11-16T08:18:49.115Z,7.10
2022-11-16T08:21:17.523Z,10.07
2022-11-16T08:23:45.080Z,9.63
2022-11-16T08:26:17.029Z,11.03
2022-11-16T08:28:46.400Z,10.63
2022-11-16T08:31:16.030Z,8.37
2022-11-16T08:33:43.195Z,9.47
2022-11-16T08:36:14.452Z,10.43
2022-11-16T08:38:41.351Z,11.10
2022-11-16T08:41:08.514Z,7.80
2022-11-16T08:43:36.067Z,8.97
2022-11-16T08:46:03.316Z,11.50
2022-11-16T08:48:30.625Z,28.47
2022-11-16T08:51:22.009Z,124.67
2022-11-16T08:53:49.993Z,8.80
2022-11-16T08:56:18.808Z,7.47
2022-11-16T08:58:53.780Z,11.37
2022-11-16T09:01:25.706Z,8.27
2022-11-16T09:03:52.966Z,10.67
2022-11-16T09:06:19.903Z,10.47
2022-11-16T09:08:47.337Z,6.27
2022-11-16T09:11:18.345Z,6.97
2022-11-16T09:13:46.368Z,6.17
2022-11-16T09:16:17.034Z,6.63
2022-11-16T09:18:47.224Z,8.53
2022-11-16T09:21:19.264Z,6.73
2022-11-16T09:23:46.700Z,8.45
2022-11-16T09:26:13.872Z,9.43
2022-11-16T09:28:40.979Z,8.07
2022-11-16T09:31:08.149Z,8.47
2022-11-16T09:33:35.237Z,6.27
2022-11-16T09:36:07.331Z,7.10
2022-11-16T09:41:51.184Z,8.47
2022-11-16T09:44:37.916Z,7.73
2022-11-16T09:47:09.867Z,8.50
2022-11-16T09:49:42.071Z,9.70
2022-11-16T09:52:18.214Z,11.38
2022-11-16T09:54:46.915Z,13.53
2022-11-16T09:57:18.063Z,14.00
2022-11-16T09:59:49.523Z,11.47
2022-11-16T10:02:39.113Z,12.50
2022-11-16T10:05:20.528Z,10.07
2022-11-16T10:07:51.781Z,7.27
2022-11-16T10:10:28.362Z,6.60
2022-11-16T10:13:22.970Z,5.60
2022-11-16T10:16:20.266Z,8.67
2022-11-16T10:19:10.347Z,6.87
2022-11-16T10:22:18.714Z,4.80
2022-11-16T10:24:59.584Z,6.80
2022-11-16T10:27:39.369Z,4.47
2022-11-16T10:30:16.119Z,3.90
2022-11-16T10:33:02.798Z,4.53
2022-11-16T10:35:39.724Z,5.43
2022-11-16T10:38:18.720Z,7.00
2022-11-16T10:40:51.961Z,2.90
2022-11-16T10:43:26.442Z,6.83
2022-11-16T10:46:22.379Z,7.27
2022-11-16T10:48:54.448Z,6.30
2022-11-16T10:51:21.118Z,7.43
2022-11-16T10:53:48.120Z,3.27
2022-11-16T10:56:37.769Z,5.63
2022-11-16T10:59:07.605Z,4.37
2022-11-16T11:01:50.336Z,2.97
2022-11-16T11:04:26.047Z,3.42
2022-11-16T11:06:54.436Z,5.77
2022-11-16T11:09:37.116Z,4.03
2022-11-16T11:12:40.370Z,6.20
2022-11-16T11:15:27.208Z,5.85
2022-11-16T11:18:12.781Z,7.67
2022-11-16T11:20:44.797Z,7.03
2022-11-16T11:23:16.156Z,6.85
2022-11-16T11:25:58.022Z,5.10
2022-11-16T11:28:36.821Z,3.33
2022-11-16T11:31:17.281Z,3.50
2022-11-16T11:33:51.648Z,6.63
2022-11-16T11:36:51.016Z,3.83
2022-11-16T11:39:20.888Z,3.00
2022-11-16T11:42:33.365Z,10.07
2022-11-16T11:49:57.070Z,5.28
2022-11-16T11:53:09.312Z,2.93
2022-11-16T12:00:19.444Z,6.23
2022-11-16T12:03:06.056Z,7.43
2022-11-16T12:06:46.815Z,4.93
2022-11-16T12:09:46.654Z,2.90
2022-11-16T12:12:52.903Z,5.03
2022-11-16T12:15:28.562Z,3.63
2022-11-16T12:22:15.429Z,3.73
2022-11-16T12:25:23.872Z,2.30
2022-11-16T12:28:29.008Z,2.90
2022-11-16T12:31:57.320Z,5.33
2022-11-16T12:35:02.425Z,9.23
2022-11-16T12:42:03.210Z,4.28
2022-11-16T12:45:15.837Z,7.20
2022-11-16T12:48:37.940Z,1.63
2022-11-16T12:51:47.207Z,4.87
2022-11-16T12:59:00.133Z,2.93
2022-11-16T13:02:15.801Z,4.57
2022-11-16T13:05:48.473Z,6.43
2022-11-16T13:09:16.621Z,4.83
2022-11-16T13:11:52.247Z,12.47
2022-11-16T13:15:01.495Z,4.57
2022-11-16T13:17:31.501Z,5.47
2022-11-16T13:20:04.205Z,4.53
2022-11-16T13:22:32.438Z,4.53
2022-11-16T13:25:17.894Z,6.57
2022-11-16T13:27:55.667Z,5.63
2022-11-16T13:31:31.086Z,4.57
2022-11-16T13:35:06.377Z,3.77
2022-11-16T13:37:47.706Z,7.07
2022-11-16T13:40:31.760Z,7.63
2022-11-16T13:43:16.955Z,6.33
2022-11-16T13:45:49.371Z,4.03
2022-11-16T13:49:03.732Z,9.68
2022-11-16T13:52:54.088Z,3.73
2022-11-16T13:55:28.415Z,6.30
2022-11-16T13:57:57.700Z,6.33
2022-11-16T14:00:36.207Z,5.03
2022-11-16T14:04:09.160Z,6.43
2022-11-16T14:07:36.112Z,9.47
2022-11-16T14:10:08.151Z,4.77
2022-11-16T14:12:58.104Z,2.25
2022-11-16T14:16:04.915Z,6.40
2022-11-16T14:18:37.310Z,7.93
2022-11-16T14:21:04.012Z,1.58
2022-11-16T14:23:49.111Z,3.50
2022-11-16T14:26:54.108Z,8.10
2022-11-16T14:29:46.827Z,5.57
2022-11-16T14:36:34.203Z,7.50
2022-11-16T14:39:16.313Z,6.80
2022-11-16T14:41:47.620Z,4.03
2022-11-16T14:44:19.921Z,7.87
2022-11-16T14:46:46.703Z,8.40
2022-11-16T14:49:16.897Z,3.97
2022-11-16T14:51:51.546Z,4.87
2022-11-16T14:54:43.773Z,9.27
2022-11-16T14:57:18.809Z,5.53
2022-11-16T14:59:45.879Z,3.97
2022-11-16T15:02:23.157Z,5.37
2022-11-16T15:04:53.009Z,9.10
2022-11-16T15:07:23.245Z,6.23
2022-11-16T15:09:53.679Z,5.70
2022-11-16T15:12:43.107Z,5.47
2022-11-16T15:15:13.348Z,9.50
2022-11-16T15:17:42.199Z,8.57
2022-11-16T15:20:13.535Z,8.77
2022-11-16T15:22:42.819Z,5.20
2022-11-16T15:25:30.785Z,6.30
2022-11-16T15:27:59.842Z,7.00
2022-11-16T15:30:30.173Z,7.30
2022-11-16T15:32:57.441Z,8.77
2022-11-16T15:35:28.436Z,8.53
2022-11-16T15:38:16.213Z,6.87
2022-11-16T15:40:54.400Z,6.63
2022-11-16T15:43:25.311Z,6.80
2022-11-16T15:45:52.997Z,4.20
2022-11-16T15:48:22.783Z,8.63
2022-11-16T15:51:06.540Z,4.13
2022-11-16T15:53:36.231Z,9.07
2022-11-16T15:56:06.416Z,7.53
2022-11-16T15:58:38.500Z,8.00
2022-11-16T16:01:05.583Z,5.15
2022-11-16T16:03:35.074Z,6.37
2022-11-16T16:06:02.719Z,9.00
2022-11-16T16:08:31.368Z,9.13
2022-11-16T16:11:00.127Z,9.03
2022-11-16T16:13:32.712Z,6.80
2022-11-16T16:16:26.529Z,7.80
2022-11-16T16:18:55.771Z,9.20
2022-11-16T16:21:23.063Z,8.93
2022-11-16T16:23:55.101Z,8.27
2022-11-16T16:26:23.364Z,8.52
2022-11-16T16:28:50.657Z,9.00
2022-11-16T16:31:18.289Z,9.67
2022-11-16T16:33:45.035Z,12.87
2022-11-16T16:36:13.620Z,10.80
2022-11-16T16:38:40.735Z,15.77
2022-11-16T16:41:08.210Z,11.67
2022-11-16T16:43:35.504Z,22.90
2022-11-16T16:46:03.891Z,22.87
2022-11-16T16:48:31.029Z,20.30
2022-11-16T16:50:57.834Z,18.57
2022-11-16T16:53:25.004Z,24.53
2022-11-16T16:55:52.150Z,15.37
2022-11-16T16:58:19.145Z,20.10
2022-11-16T17:00:46.164Z,26.27
2022-11-16T17:03:13.274Z,28.60
2022-11-16T17:05:40.049Z,32.10
2022-11-16T17:08:06.961Z,42.90
2022-11-16T17:10:33.752Z,48.10
2022-11-16T17:13:03.239Z,37.90
2022-11-16T17:15:30.212Z,34.30
2022-11-16T17:17:59.094Z,31.90
2022-11-16T17:20:26.080Z,23.33
2022-11-16T17:22:52.873Z,24.20
2022-11-16T17:25:20.935Z,22.80
2022-11-16T17:27:47.995Z,24.10
2022-11-16T17:30:15.393Z,26.10
2022-11-16T17:32:42.499Z,36.20
2022-11-16T17:35:09.952Z,27.20
2022-11-16T17:37:36.787Z,28.03
2022-11-16T17:40:03.796Z,29.03
2022-11-16T17:42:33.182Z,34.67
2022-11-16T17:45:00.083Z,30.23
2022-11-16T17:47:26.955Z,37.00
2022-11-16T17:49:53.791Z,36.77
2022-11-16T17:52:20.629Z,39.07
2022-11-16T17:54:47.319Z,41.67
2022-11-16T17:57:14.241Z,29.73
2022-11-16T17:59:41.152Z,33.00
2022-11-16T18:02:11.149Z,78.63
2022-11-16T18:04:38.098Z,81.37
2022-11-16T18:07:04.818Z,72.23
2022-11-16T18:09:31.765Z,62.37
2022-11-16T18:11:58.779Z,105.47
2022-11-16T18:14:26.657Z,77.77
2022-11-16T18:17:53.394Z,100.90
2022-11-16T18:25:13.809Z,52.65
2022-11-16T18:28:40.491Z,36.00
2022-11-16T18:35:48.797Z,34.20
2022-11-16T18:39:15.319Z,48.40
2022-11-16T18:46:37.627Z,28.90
2022-11-16T18:50:04.074Z,23.77
2022-11-16T18:53:30.691Z,19.40
2022-11-16T18:56:57.212Z,20.80
2022-11-16T19:00:24.107Z,19.43
2022-11-16T19:03:11.076Z,16.47
2022-11-16T19:05:38.430Z,18.00
2022-11-16T19:08:05.662Z,23.80
2022-11-16T19:10:35.436Z,21.73
2022-11-16T19:13:02.455Z,17.17
2022-11-16T19:15:29.124Z,23.40
2022-11-16T19:18:19.926Z,17.80
2022-11-16T19:20:42.643Z,14.03
2022-11-16T19:23:09.517Z,11.37
2022-11-16T19:25:36.228Z,11.13
2022-11-16T19:28:04.870Z,15.00
2022-11-16T19:30:31.896Z,11.57
2022-11-16T19:32:59.929Z,10.60
2022-11-16T19:35:27.010Z,17.00
2022-11-16T19:37:53.948Z,21.23
2022-11-16T19:40:24.816Z,34.73
2022-11-16T19:42:53.301Z,18.37
2022-11-16T19:45:20.029Z,16.57
2022-11-16T19:47:46.833Z,20.00
2022-11-16T19:50:14.157Z,22.67
2022-11-16T19:52:41.188Z,16.43
2022-11-16T19:55:08.274Z,14.23
2022-11-16T19:57:35.215Z,16.30
2022-11-16T20:00:01.913Z,15.97
2022-11-16T20:02:28.730Z,29.47
2022-11-16T20:04:55.804Z,21.07
2022-11-16T20:07:22.715Z,26.33
2022-11-16T20:09:53.319Z,21.37
2022-11-16T20:12:20.511Z,21.73
2022-11-16T20:14:47.449Z,19.80
2022-11-16T20:17:14.270Z,18.77
2022-11-16T20:19:41.181Z,19.30
2022-11-16T20:22:08.448Z,17.40
2022-11-16T20:24:35.273Z,15.60
2022-11-16T20:27:02.124Z,15.70
2022-11-16T20:29:28.770Z,19.43
2022-11-16T20:31:55.419Z,24.63
2022-11-16T20:34:22.547Z,26.00
2022-11-16T20:36:50.997Z,28.30
2022-11-16T20:39:19.836Z,20.90
2022-11-16T20:41:48.332Z,18.13
2022-11-16T20:44:22.367Z,16.50
2022-11-16T20:46:51.156Z,13.63
2022-11-16T20:49:18.101Z,13.27
2022-11-16T20:51:47.667Z,13.87
2022-11-16T20:54:14.888Z,13.60
2022-11-16T20:56:41.636Z,14.30
2022-11-16T20:59:08.283Z,14.27
2022-11-16T21:01:35.474Z,18.03
2022-11-16T21:04:06.331Z,17.53
2022-11-16T21:06:33.701Z,19.83
2022-11-16T21:09:01.560Z,16.80
2022-11-16T21:11:31.179Z,19.00
2022-11-16T21:14:16.172Z,18.20
2022-11-16T21:16:43.575Z,16.27
2022-11-16T21:19:10.859Z,18.40
2022-11-16T21:21:38.729Z,15.70
2022-11-16T21:24:05.600Z,15.90
2022-11-16T21:26:33.633Z,17.07
2022-11-16T21:29:01.856Z,16.10
2022-11-16T21:31:33.379Z,14.37
2022-11-16T21:34:01.186Z,13.63
2022-11-16T21:36:29.793Z,14.37
2022-11-16T21:38:58.074Z,13.47
2022-11-16T21:41:25.612Z,13.77
2022-11-16T21:43:52.415Z,13.80
2022-11-16T21:46:26.942Z,13.70
2022-11-16T21:48:56.804Z,17.47
2022-11-16T21:51:26.392Z,14.20
2022-11-16T21:53:53.786Z,20.43
2022-11-16T21:56:23.065Z,15.10
2022-11-16T21:58:50.531Z,15.00
2022-11-16T22:01:17.463Z,14.23
2022-11-16T22:03:44.885Z,16.20
2022-11-16T22:06:34.982Z,8.60
2022-11-16T22:09:01.947Z,10.77
2022-11-16T22:11:28.924Z,11.87
2022-11-16T22:13:55.690Z,13.37
2022-11-16T22:16:23.693Z,7.83
2022-11-16T22:18:50.958Z,7.90
2022-11-16T22:21:17.646Z,8.00
2022-11-16T22:23:44.529Z,6.23
2022-11-16T22:26:13.194Z,7.13
2022-11-16T22:28:40.662Z,10.53
2022-11-16T22:31:09.867Z,6.77
2022-11-16T22:33:37.156Z,9.47
2022-11-16T22:36:04.767Z,9.23
2022-11-16T22:38:31.960Z,8.20
2022-11-16T22:40:58.709Z,8.10
2022-11-16T22:43:30.517Z,4.37
2022-11-16T22:46:02.632Z,9.37
2022-11-16T22:48:31.245Z,7.68
2022-11-16T22:51:04.913Z,6.90
2022-11-16T22:53:31.698Z,5.97
2022-11-16T22:56:08.808Z,8.77
2022-11-16T22:58:38.737Z,9.97
2022-11-16T23:01:07.879Z,8.00
2022-11-16T23:03:35.377Z,8.57
2022-11-16T23:06:02.939Z,11.73
2022-11-16T23:08:30.093Z,7.27
2022-11-16T23:11:23.967Z,5.33
2022-11-16T23:14:11.064Z,8.50
2022-11-16T23:16:39.424Z,13.97
2022-11-16T23:19:26.976Z,11.87
2022-11-16T23:22:12.556Z,8.50
2022-11-16T23:24:58.056Z,6.23
2022-11-16T23:27:30.827Z,5.47
2022-11-16T23:30:00.271Z,6.90
2022-11-16T23:32:28.124Z,7.13
2022-11-16T23:34:55.029Z,7.23
2022-11-16T23:37:22.019Z,9.73
2022-11-16T23:39:48.939Z,10.10
2022-11-16T23:42:34.345Z,8.87
2022-11-16T23:45:01.393Z,16.77
2022-11-16T23:47:28.410Z,18.27
2022-11-16T23:49:55.395Z,17.33
2022-11-16T23:52:22.423Z,15.53
2022-11-16T23:54:49.313Z,20.17
2022-11-16T23:57:16.251Z,19.93
2022-11-16T23:59:43.295Z,20.30
